sensor_id;sensor_type;location;lat;lon;timestamp;P1;durP1;ratioP1;P2;durP2;ratioP2
35042;SDS011;21230;51.170;17.024;2023-02-05T00:00:17;16.77;;;4.40;;
35042;SDS011;21230;51.170;17.024;2023-02-05T00:02:50;5.13;;;3.05;;
35042;SDS011;21230;51.170;17.024;2023-02-05T00:05:17;9.13;;;3.88;;
35042;SDS011;21230;51.170;17.024;2023-02-05T00:07:44;7.18;;;3.42;;
35042;SDS011;21230;51.170;17.024;2023-02-05T00:10:11;12.70;;;3.20;;
35042;SDS011;21230;51.170;17.024;2023-02-05T00:12:38;11.00;;;2.95;;
35042;SDS011;21230;51.170;17.024;2023-02-05T00:15:05;11.30;;;4.68;;
35042;SDS011;21230;51.170;17.024;2023-02-05T00:17:33;10.23;;;5.47;;
35042;SDS011;21230;51.170;17.024;2023-02-05T00:20:00;8.10;;;3.47;;
35042;SDS011;21230;51.170;17.024;2023-02-05T00:22:52;9.02;;;3.35;;
35042;SDS011;21230;51.170;17.024;2023-02-05T00:25:23;7.05;;;3.78;;
35042;SDS011;21230;51.170;17.024;2023-02-05T00:28:12;10.18;;;4.97;;
35042;SDS011;21230;51.170;17.024;2023-02-05T00:30:41;6.95;;;3.75;;
35042;SDS011;21230;51.170;17.024;2023-02-05T00:33:17;7.43;;;3.70;;
35042;SDS011;21230;51.170;17.024;2023-02-05T00:35:54;7.38;;;4.45;;
35042;SDS011;21230;51.170;17.024;2023-02-05T00:38:35;12.13;;;4.13;;
35042;SDS011;21230;51.170;17.024;2023-02-05T00:41:03;10.27;;;3.65;;
35042;SDS011;21230;51.170;17.024;2023-02-05T00:43:30;7.97;;;3.53;;
35042;SDS011;21230;51.170;17.024;2023-02-05T00:45:59;11.07;;;3.72;;
35042;SDS011;21230;51.170;17.024;2023-02-05T00:48:38;8.27;;;3.38;;
35042;SDS011;21230;51.170;17.024;2023-02-05T00:51:05;9.80;;;3.65;;
35042;SDS011;21230;51.170;17.024;2023-02-05T00:53:31;13.38;;;5.60;;
35042;SDS011;21230;51.170;17.024;2023-02-05T00:55:57;16.63;;;4.68;;
35042;SDS011;21230;51.170;17.024;2023-02-05T00:58:25;6.82;;;3.80;;
35042;SDS011;21230;51.170;17.024;2023-02-05T01:00:51;12.20;;;4.18;;
35042;SDS011;21230;51.170;17.024;2023-02-05T01:03:17;8.15;;;3.33;;
35042;SDS011;21230;51.170;17.024;2023-02-05T01:05:44;16.52;;;4.93;;
35042;SDS011;21230;51.170;17.024;2023-02-05T01:08:10;10.00;;;3.42;;
35042;SDS011;21230;51.170;17.024;2023-02-05T01:10:37;9.60;;;3.58;;
35042;SDS011;21230;51.170;17.024;2023-02-05T01:13:07;11.57;;;4.70;;
35042;SDS011;21230;51.170;17.024;2023-02-05T01:15:33;14.57;;;4.85;;
35042;SDS011;21230;51.170;17.024;2023-02-05T01:17:58;12.90;;;4.50;;
35042;SDS011;21230;51.170;17.024;2023-02-05T01:23:03;9.60;;;4.47;;
35042;SDS011;21230;51.170;17.024;2023-02-05T01:25:37;10.95;;;5.53;;
35042;SDS011;21230;51.170;17.024;2023-02-05T01:28:16;7.93;;;4.35;;
35042;SDS011;21230;51.170;17.024;2023-02-05T01:30:47;7.43;;;3.17;;
35042;SDS011;21230;51.170;17.024;2023-02-05T01:33:25;10.03;;;4.80;;
35042;SDS011;21230;51.170;17.024;2023-02-05T01:35:53;14.35;;;4.93;;
35042;SDS011;21230;51.170;17.024;2023-02-05T01:38:35;12.45;;;5.13;;
35042;SDS011;21230;51.170;17.024;2023-02-05T01:41:22;10.07;;;6.13;;
35042;SDS011;21230;51.170;17.024;2023-02-05T01:47:10;9.85;;;4.57;;
35042;SDS011;21230;51.170;17.024;2023-02-05T01:49:45;11.45;;;3.97;;
35042;SDS011;21230;51.170;17.024;2023-02-05T01:52:15;6.95;;;4.53;;
35042;SDS011;21230;51.170;17.024;2023-02-05T01:54:52;9.95;;;4.88;;
35042;SDS011;21230;51.170;17.024;2023-02-05T01:57:30;13.63;;;6.07;;
35042;SDS011;21230;51.170;17.024;2023-02-05T02:00:13;10.57;;;3.92;;
35042;SDS011;21230;51.170;17.024;2023-02-05T02:02:43;14.65;;;7.00;;
35042;SDS011;21230;51.170;17.024;2023-02-05T02:05:34;18.50;;;5.45;;
35042;SDS011;21230;51.170;17.024;2023-02-05T02:08:04;26.73;;;10.75;;
35042;SDS011;21230;51.170;17.024;2023-02-05T02:10:52;31.98;;;9.15;;
35042;SDS011;21230;51.170;17.024;2023-02-05T02:13:21;21.83;;;7.70;;
35042;SDS011;21230;51.170;17.024;2023-02-05T02:16:14;27.17;;;9.82;;
35042;SDS011;21230;51.170;17.024;2023-02-05T02:18:55;26.90;;;8.88;;
35042;SDS011;21230;51.170;17.024;2023-02-05T02:21:34;20.85;;;6.50;;
35042;SDS011;21230;51.170;17.024;2023-02-05T02:24:20;32.00;;;6.38;;
35042;SDS011;21230;51.170;17.024;2023-02-05T02:27:31;15.68;;;5.88;;
35042;SDS011;21230;51.170;17.024;2023-02-05T02:30:17;10.63;;;4.50;;
35042;SDS011;21230;51.170;17.024;2023-02-05T02:38:30;22.55;;;6.43;;
35042;SDS011;21230;51.170;17.024;2023-02-05T02:41:28;20.13;;;5.70;;
35042;SDS011;21230;51.170;17.024;2023-02-05T02:44:24;8.57;;;4.28;;
35042;SDS011;21230;51.170;17.024;2023-02-05T02:46:56;12.07;;;5.13;;
35042;SDS011;21230;51.170;17.024;2023-02-05T02:50:02;8.85;;;4.32;;
35042;SDS011;21230;51.170;17.024;2023-02-05T02:53:00;12.88;;;5.80;;
35042;SDS011;21230;51.170;17.024;2023-02-05T02:55:33;12.93;;;6.03;;
35042;SDS011;21230;51.170;17.024;2023-02-05T02:58:06;11.65;;;5.63;;
35042;SDS011;21230;51.170;17.024;2023-02-05T03:00:35;10.65;;;4.22;;
35042;SDS011;21230;51.170;17.024;2023-02-05T03:03:05;23.10;;;5.10;;
35042;SDS011;21230;51.170;17.024;2023-02-05T03:05:36;14.13;;;6.60;;
35042;SDS011;21230;51.170;17.024;2023-02-05T03:08:08;13.05;;;5.93;;
35042;SDS011;21230;51.170;17.024;2023-02-05T03:10:49;10.30;;;4.63;;
35042;SDS011;21230;51.170;17.024;2023-02-05T03:13:53;14.68;;;6.75;;
35042;SDS011;21230;51.170;17.024;2023-02-05T03:16:30;11.63;;;5.75;;
35042;SDS011;21230;51.170;17.024;2023-02-05T03:18:56;13.63;;;6.55;;
35042;SDS011;21230;51.170;17.024;2023-02-05T03:21:24;8.60;;;4.90;;
35042;SDS011;21230;51.170;17.024;2023-02-05T03:23:59;10.20;;;5.50;;
35042;SDS011;21230;51.170;17.024;2023-02-05T03:26:30;10.20;;;4.95;;
35042;SDS011;21230;51.170;17.024;2023-02-05T03:29:00;9.63;;;5.43;;
35042;SDS011;21230;51.170;17.024;2023-02-05T03:40:54;12.45;;;5.03;;
35042;SDS011;21230;51.170;17.024;2023-02-05T03:43:51;10.02;;;5.47;;
35042;SDS011;21230;51.170;17.024;2023-02-05T03:46:44;10.38;;;5.32;;
35042;SDS011;21230;51.170;17.024;2023-02-05T03:55:51;14.35;;;7.45;;
35042;SDS011;21230;51.170;17.024;2023-02-05T03:58:47;11.15;;;7.57;;
35042;SDS011;21230;51.170;17.024;2023-02-05T04:01:17;16.80;;;7.05;;
35042;SDS011;21230;51.170;17.024;2023-02-05T04:03:44;11.77;;;5.78;;
35042;SDS011;21230;51.170;17.024;2023-02-05T04:06:11;23.27;;;7.80;;
35042;SDS011;21230;51.170;17.024;2023-02-05T04:08:37;23.85;;;10.68;;
35042;SDS011;21230;51.170;17.024;2023-02-05T04:11:03;16.00;;;8.75;;
35042;SDS011;21230;51.170;17.024;2023-02-05T04:13:29;10.52;;;6.20;;
35042;SDS011;21230;51.170;17.024;2023-02-05T04:15:56;20.70;;;6.43;;
35042;SDS011;21230;51.170;17.024;2023-02-05T04:18:22;14.40;;;5.82;;
35042;SDS011;21230;51.170;17.024;2023-02-05T04:20:49;7.85;;;5.35;;
35042;SDS011;21230;51.170;17.024;2023-02-05T04:23:15;13.32;;;5.85;;
35042;SDS011;21230;51.170;17.024;2023-02-05T04:25:41;12.68;;;6.38;;
35042;SDS011;21230;51.170;17.024;2023-02-05T04:28:08;17.08;;;6.78;;
35042;SDS011;21230;51.170;17.024;2023-02-05T04:30:37;17.48;;;8.05;;
35042;SDS011;21230;51.170;17.024;2023-02-05T04:33:03;13.15;;;6.05;;
35042;SDS011;21230;51.170;17.024;2023-02-05T04:35:31;16.92;;;7.82;;
35042;SDS011;21230;51.170;17.024;2023-02-05T04:37:56;16.67;;;7.72;;
35042;SDS011;21230;51.170;17.024;2023-02-05T04:40:23;12.48;;;6.90;;
35042;SDS011;21230;51.170;17.024;2023-02-05T04:42:54;11.45;;;6.63;;
35042;SDS011;21230;51.170;17.024;2023-02-05T04:45:20;13.13;;;6.57;;
35042;SDS011;21230;51.170;17.024;2023-02-05T04:47:47;13.10;;;6.68;;
35042;SDS011;21230;51.170;17.024;2023-02-05T04:50:14;14.75;;;6.88;;
35042;SDS011;21230;51.170;17.024;2023-02-05T04:52:42;44.25;;;20.50;;
35042;SDS011;21230;51.170;17.024;2023-02-05T04:55:11;57.92;;;24.15;;
35042;SDS011;21230;51.170;17.024;2023-02-05T04:57:40;44.80;;;20.17;;
35042;SDS011;21230;51.170;17.024;2023-02-05T05:00:06;25.02;;;13.95;;
35042;SDS011;21230;51.170;17.024;2023-02-05T05:02:32;24.20;;;12.00;;
35042;SDS011;21230;51.170;17.024;2023-02-05T05:04:58;20.10;;;9.25;;
35042;SDS011;21230;51.170;17.024;2023-02-05T05:07:24;16.58;;;9.93;;
35042;SDS011;21230;51.170;17.024;2023-02-05T05:09:53;17.70;;;8.70;;
35042;SDS011;21230;51.170;17.024;2023-02-05T05:12:30;12.55;;;7.82;;
35042;SDS011;21230;51.170;17.024;2023-02-05T05:15:00;12.35;;;7.90;;
35042;SDS011;21230;51.170;17.024;2023-02-05T05:17:26;15.00;;;8.23;;
35042;SDS011;21230;51.170;17.024;2023-02-05T05:19:52;11.68;;;6.82;;
35042;SDS011;21230;51.170;17.024;2023-02-05T05:22:18;14.23;;;8.43;;
35042;SDS011;21230;51.170;17.024;2023-02-05T05:24:44;10.38;;;7.22;;
35042;SDS011;21230;51.170;17.024;2023-02-05T05:27:10;13.90;;;8.88;;
35042;SDS011;21230;51.170;17.024;2023-02-05T05:29:36;21.13;;;8.88;;
35042;SDS011;21230;51.170;17.024;2023-02-05T05:32:02;10.63;;;6.25;;
35042;SDS011;21230;51.170;17.024;2023-02-05T05:34:29;16.08;;;7.30;;
35042;SDS011;21230;51.170;17.024;2023-02-05T05:36:55;15.85;;;7.68;;
35042;SDS011;21230;51.170;17.024;2023-02-05T05:39:21;8.55;;;5.85;;
35042;SDS011;21230;51.170;17.024;2023-02-05T05:42:06;11.65;;;6.90;;
35042;SDS011;21230;51.170;17.024;2023-02-05T05:44:56;17.80;;;8.23;;
35042;SDS011;21230;51.170;17.024;2023-02-05T05:47:25;11.25;;;5.75;;
35042;SDS011;21230;51.170;17.024;2023-02-05T05:49:51;13.63;;;6.80;;
35042;SDS011;21230;51.170;17.024;2023-02-05T05:52:17;14.50;;;7.53;;
35042;SDS011;21230;51.170;17.024;2023-02-05T05:54:43;8.15;;;5.45;;
35042;SDS011;21230;51.170;17.024;2023-02-05T05:57:11;15.70;;;8.07;;
35042;SDS011;21230;51.170;17.024;2023-02-05T05:59:40;18.00;;;7.55;;
35042;SDS011;21230;51.170;17.024;2023-02-05T06:02:06;14.73;;;7.18;;
35042;SDS011;21230;51.170;17.024;2023-02-05T06:04:32;11.35;;;7.82;;
35042;SDS011;21230;51.170;17.024;2023-02-05T06:06:59;16.38;;;10.75;;
35042;SDS011;21230;51.170;17.024;2023-02-05T06:09:26;19.58;;;8.48;;
35042;SDS011;21230;51.170;17.024;2023-02-05T06:11:53;13.77;;;6.82;;
35042;SDS011;21230;51.170;17.024;2023-02-05T06:14:20;13.10;;;7.10;;
35042;SDS011;21230;51.170;17.024;2023-02-05T06:16:46;17.88;;;8.77;;
35042;SDS011;21230;51.170;17.024;2023-02-05T06:19:13;11.27;;;6.90;;
35042;SDS011;21230;51.170;17.024;2023-02-05T06:21:40;12.60;;;6.70;;
35042;SDS011;21230;51.170;17.024;2023-02-05T06:24:06;15.82;;;7.32;;
35042;SDS011;21230;51.170;17.024;2023-02-05T06:26:32;18.58;;;7.47;;
35042;SDS011;21230;51.170;17.024;2023-02-05T06:28:59;15.85;;;8.00;;
35042;SDS011;21230;51.170;17.024;2023-02-05T06:31:30;14.75;;;8.45;;
35042;SDS011;21230;51.170;17.024;2023-02-05T06:33:56;20.73;;;8.60;;
35042;SDS011;21230;51.170;17.024;2023-02-05T06:36:22;18.00;;;8.48;;
35042;SDS011;21230;51.170;17.024;2023-02-05T06:38:48;17.52;;;7.85;;
35042;SDS011;21230;51.170;17.024;2023-02-05T06:41:14;23.10;;;9.50;;
35042;SDS011;21230;51.170;17.024;2023-02-05T07:07:59;17.65;;;8.00;;
35042;SDS011;21230;51.170;17.024;2023-02-05T07:42:04;18.60;;;7.40;;
35042;SDS011;21230;51.170;17.024;2023-02-05T08:13:41;13.00;;;5.90;;
